Latest Coastal Weather Observations for Lord Howe Island

IDN60701

Issued at 8:21 pm EDT Sunday 7 March 2021 (issued every 10 minutes, with the page automatically refreshed every 10 minutes)

About coastal observations | Map of coastal stations | Coastal observations for NSW | Marine services | Other Formats
Station Details ID: 200839 Name: LORD HOWE ISLAND AERO Lat: -31.54 Lon: 159.08 Height: 5.0 m
Data from the previous 72 hours. | See also: Recent months at Lord Howe Island

Observations are collected in the New South Wales time zone (Eastern Standard Time) which includes daylight savings in the summer period. Therefore 'Rain since 9am' totals and other values are based on the New South Wales time zone, which may differ from local time.

Date/Time
EDT
Wind Sea
Height
m
Swell Vis
km
Cloud Weather Temp
°C
Press
MSL
hPa
Rain since
9am
mm
Dir  Spd
kts
Gust
kts
Height
m
Period
s
Dir
07/08:00pm SE 4 5 - - - - 10 Cloudy - 20.6 1015.7 0.0
07/07:30pm ESE 4 5 - - - - 10 Cloudy - 20.5 1015.4 0.0
07/07:00pm SE 3 5 - - - - 10 Cloudy - 20.5 1015.2 0.0
07/06:30pm ESE 4 7 - - - - 10 Partly cloudy - 20.9 1014.8 0.0
07/06:00pm SE 1 5 - - - - 10 Mostly cloudy - 21.2 1014.6 0.0
07/05:30pm WNW 5 8 - - - - 10 Partly cloudy - 21.4 1014.3 0.0
07/05:00pm W 4 7 - - - - 10 Partly cloudy - 22.6 1013.9 0.0
07/04:30pm S 7 11 - - - - 10 Partly cloudy - 22.6 1013.8 0.0
07/04:00pm SW 5 7 - - - - 10 Partly cloudy - 22.8 1013.5 0.0
07/03:30pm SW 5 9 - - - - 10 Partly cloudy - 22.3 1013.7 0.0
07/03:00pm SSW 8 12 - - - - 10 Cloudy - 22.3 1013.8 0.0
07/02:30pm WSW 9 13 - - - - 10 Partly cloudy - 22.6 1013.8 0.0
07/02:00pm WSW 8 11 - - - - 10 - - 22.3 1013.9 0.0
07/01:30pm WSW 9 13 - - - - 10 Partly cloudy - 22.4 1014.0 0.0
07/01:00pm WSW 10 14 - - - - 10 Partly cloudy - 22.2 1014.0 0.0
07/12:30pm WSW 9 11 - - - - 10 Partly cloudy - 21.8 1014.1 0.0
07/12:00pm W 10 12 - - - - 10 Cloudy Drizzle 21.3 1014.4 0.0
07/11:30am SW 10 17 - - - - 10 Partly cloudy - 19.8 1014.5 0.0
07/11:00am WSW 6 11 - - - - 10 Partly cloudy - 21.8 1014.4 0.0
07/10:30am SW 6 9 - - - - 10 Partly cloudy - 21.0 1014.3 0.0
07/10:00am SSW 8 14 - - - - 10 Partly cloudy - 20.6 1014.4 0.0
07/09:30am SW 7 10 - - - - 10 Partly cloudy - 21.3 1014.1 0.0
07/09:00am SW 3 6 - - - - 10 Cloudy Drizzle 20.1 1014.0 0.0
07/08:30am SW 10 15 - - - - 10 Partly cloudy - 19.3 1013.9 0.0
07/08:00am SSE 4 9 - - - - 10 Partly cloudy - 20.4 1013.4 0.0
07/07:30am S 5 9 - - - - 10 Partly cloudy - 19.8 1013.1 0.0
07/07:00am SSW 7 14 - - - - 10 Cloudy - 19.9 1012.7 0.0
07/06:30am ESE 6 10 - - - - 10 Cloudy - 19.1 1012.2 0.0
07/06:00am SSW 9 22 - - - - 15 Mostly cloudy Fine 19.9 1011.8 0.0
07/05:30am SSE 5 10 - - - - 10 Cloudy - 20.2 1011.2 0.0
07/05:00am SSE 4 8 - - - - 10 Cloudy - 19.8 1011.0 0.0
07/04:30am SSE 5 9 - - - - 10 Cloudy - 19.5 1010.8 0.0
07/04:00am SSE 4 9 - - - - 10 Cloudy - 19.5 1010.6 0.0
07/03:30am S 5 9 - - - - 10 Cloudy - 19.8 1010.5 0.0
07/03:00am SSW 5 9 - - - - 10 Cloudy - 19.9 1010.4 0.0
07/02:30am SSE 4 7 - - - - 10 Cloudy - 19.5 1010.6 0.0
07/02:00am S 5 9 - - - - 10 Cloudy - 19.5 1010.6 0.0
07/01:30am SE 5 10 - - - - 10 Partly cloudy - 18.9 1010.7 0.0
07/01:00am SSW 11 18 - - - - 10 Partly cloudy - 19.1 1010.9 0.0
07/12:30am S 4 6 - - - - 10 Cloudy - 19.5 1010.8 0.0
07/12:00am SSW 8 15 - - - - 10 Cloudy Showers 19.1 1011.1 0.0
 
Date/Time
EDT
Wind Sea
Height
m
Swell Vis
km
Cloud Weather Temp
°C
Press
MSL
hPa
Rain since
9am
mm
Dir  Spd
kts
Gust
kts
Height
m
Period
s
Dir
06/11:30pm SSW 9 16 - - - - 10 Partly cloudy - 19.7 1010.8 0.0
06/11:00pm SSE 5 10 - - - - 10 Cloudy - 20.2 1010.7 0.0
06/10:30pm SSW 10 17 - - - - 10 Partly cloudy - 20.2 1010.8 0.0
06/10:00pm SSW 11 16 - - - - 10 Cloudy - 20.4 1010.7 0.0
06/09:30pm SSW 7 11 - - - - 10 Partly cloudy - 20.3 1010.6 0.0
06/09:00pm SSW 7 16 - - - - 10 Cloudy Showers 20.2 1010.3 0.0
06/08:30pm SSW 7 12 - - - - 10 Partly cloudy - 20.2 1009.9 0.0
06/08:00pm SSW 10 18 - - - - 10 Partly cloudy - 20.5 1009.3 0.0
06/07:30pm SSW 9 14 - - - - 10 Partly cloudy - 20.2 1009.0 0.0
06/07:00pm SSW 9 16 - - - - 10 Partly cloudy - 20.3 1008.5 0.0
06/06:30pm SSW 11 16 - - - - 10 Partly cloudy - 20.4 1008.1 0.0
06/06:00pm SSW 12 21 - - - - 10 Mostly clear - 20.5 1007.8 0.0
06/05:30pm SSW 13 21 - - - - 10 Partly cloudy - 20.5 1007.5 0.0
06/05:00pm SSW 13 22 - - - - 10 Partly cloudy - 21.3 1007.3 0.0
06/04:30pm SSW 12 21 - - - - 10 Partly cloudy - 21.2 1007.1 0.0
06/04:00pm SSW 12 21 - - - - 10 Partly cloudy - 21.8 1007.1 0.0
06/03:30pm SSW 12 20 - - - - 10 Partly cloudy - 22.0 1007.0 0.0
06/03:00pm SSW 13 19 - - - - 20 Partly cloudy Fine 22.3 1006.8 0.0
06/02:30pm SW 13 22 - - - - 10 Partly cloudy - 22.5 1006.8 0.0
06/02:00pm SW 13 23 - - - - 10 Partly cloudy - 22.6 1006.9 0.0
06/01:30pm SSW 12 22 - - - - 10 Partly cloudy - 22.2 1007.3 0.0
06/01:00pm SSW 12 20 - - - - 10 Partly cloudy - 22.3 1007.3 0.0
06/12:30pm SSW 14 23 - - - - 10 Partly cloudy - 21.7 1007.3 0.0
06/12:00pm SSW 13 22 - - - - 10 Cloudy - 21.9 1007.4 0.0
06/11:30am SSW 13 21 - - - - 10 Partly cloudy - 21.5 1007.6 0.0
06/11:21am SSW 15 25 - - - - 10 Partly cloudy - 20.8 1007.7 0.0
06/11:00am SSW 13 22 - - - - 10 Partly cloudy - 22.0 1007.4 0.0
06/10:30am SW 12 19 - - - - 10 Partly cloudy - 21.6 1007.1 0.0
06/10:00am SSW 12 21 - - - - 10 Partly cloudy - 22.0 1007.1 0.0
06/09:30am SW 12 19 - - - - 10 Partly cloudy - 21.7 1007.0 0.0
06/09:00am SSW 12 20 - - - - 18 Partly cloudy Fine 21.9 1006.8 5.2
06/08:30am SW 10 15 - - - - 10 Partly cloudy - 21.8 1006.3 5.2
06/08:00am SW 9 17 - - - - 10 Partly cloudy - 21.5 1006.2 5.2
06/07:30am SSW 10 17 - - - - 10 Partly cloudy - 21.2 1005.9 5.2
06/07:00am SSW 8 12 - - - - 10 - - 20.9 1005.6 5.2
06/06:30am SSW 8 13 - - - - 10 Partly cloudy - 20.6 1005.3 5.2
06/06:00am SSW 9 15 - - - - 18 Partly cloudy Recent precip. 20.3 1005.2 5.2
06/05:30am SSW 12 22 - - - - 10 Partly cloudy - 19.8 1005.0 5.0
06/05:00am SSW 6 9 - - - - 10 Partly cloudy - 20.0 1004.9 5.0
06/04:30am SSW 8 13 - - - - 10 Cloudy - 19.8 1005.0 5.0
06/04:00am SSW 9 15 - - - - 10 Partly cloudy - 19.4 1005.0 5.0
06/03:30am SSW 6 10 - - - - 10 Partly cloudy - 20.4 1004.8 5.0
06/03:00am S 5 8 - - - - 10 - - 20.0 1004.7 5.0
06/02:30am SSE 2 4 - - - - 10 - - 18.6 1004.7 5.0
06/02:00am S 5 9 - - - - 10 Partly cloudy - 20.2 1004.8 5.0
06/01:30am S 5 10 - - - - 10 Partly cloudy - 20.1 1004.9 5.0
06/01:00am S 3 9 - - - - 10 - - 20.2 1004.9 5.0
06/12:30am S 5 9 - - - - 10 Partly cloudy - 20.3 1005.0 5.0
06/12:00am SSE 1 5 - - - - 10 - - 19.4 1004.9 5.0
 
Date/Time
EDT
Wind Sea
Height
m
Swell Vis
km
Cloud Weather Temp
°C
Press
MSL
hPa
Rain since
9am
mm
Dir  Spd
kts
Gust
kts
Height
m
Period
s
Dir
05/11:30pm S 5 11 - - - - 10 - - 20.5 1004.9 5.0
05/11:00pm SSW 9 13 - - - - 10 Partly cloudy - 21.0 1004.7 5.0
05/10:30pm SW 7 12 - - - - 10 Partly cloudy - 21.1 1004.5 5.0
05/10:02pm SW 9 15 - - - - 10 Partly cloudy - 21.1 1004.6 5.0
05/10:00pm SW 10 15 - - - - 10 Partly cloudy - 21.3 1004.6 5.0
05/09:30pm WNW 6 9 - - - - 10 Partly cloudy - 20.9 1004.5 5.0
05/09:24pm WNW 6 9 - - - - 10 Partly cloudy - 20.7 1004.5 5.0
05/09:00pm WNW 5 8 - - - - 10 Mostly clear Rain 20.5 1004.6 5.0
05/08:52pm WNW 6 10 - - - - 10 Partly cloudy - 20.5 1004.5 5.0
05/08:47pm WNW 6 9 - - - - 10 Partly cloudy - 20.5 1004.4 5.0
05/08:30pm W 9 17 - - - - 2 Partly cloudy - 20.9 1004.5 5.0
05/08:28pm WSW 9 17 - - - - 2 Partly cloudy - 20.7 1004.4 5.0
05/08:08pm W 10 14 - - - - 5 Partly cloudy - 21.4 1004.2 1.0
05/08:00pm W 11 16 - - - - 10 Partly cloudy - 22.2 1004.2 0.0
05/07:30pm W 10 14 - - - - 10 Partly cloudy - 22.8 1004.2 0.0
05/07:00pm W 15 19 - - - - 10 Partly cloudy - 22.6 1004.2 0.0
05/06:30pm W 15 18 - - - - 10 Partly cloudy - 22.7 1004.0 0.0
05/06:00pm W 15 18 - - - - 10 Mostly cloudy - 22.9 1004.1 0.0
05/05:30pm W 15 19 - - - - 10 Partly cloudy - 23.0 1003.9 0.0
05/05:00pm W 15 17 - - - - 10 Partly cloudy - 24.0 1003.9 0.0
05/04:30pm W 15 17 - - - - 10 Partly cloudy - 24.4 1004.0 0.0
05/04:00pm W 14 18 - - - - 10 Partly cloudy - 24.8 1004.0 0.0
05/03:30pm W 14 18 - - - - 10 Partly cloudy - 24.3 1004.0 0.0
05/03:00pm W 15 18 - - - - 10 Mostly clear - 24.1 1004.3 0.0
05/02:30pm W 15 18 - - - - 10 Partly cloudy - 24.7 1004.5 0.0
05/02:00pm W 14 17 - - - - 10 Partly cloudy - 25.0 1004.7 0.0
05/01:30pm W 15 19 - - - - 10 Partly cloudy - 24.3 1005.1 0.0
05/01:00pm W 14 19 - - - - 10 Partly cloudy - 24.9 1005.5 0.0
05/12:30pm W 15 19 - - - - 10 Partly cloudy - 24.7 1006.0 0.0
05/12:00pm W 14 17 - - - - 10 Mostly clear - 24.3 1006.4 0.0
05/11:30am W 14 17 - - - - 10 Partly cloudy - 24.2 1006.6 0.0
05/11:00am W 13 17 - - - - 10 Partly cloudy - 23.7 1006.8 0.0
05/10:30am W 14 17 - - - - 10 Partly cloudy - 23.3 1006.9 0.0
05/10:00am W 13 15 - - - - 10 Partly cloudy - 23.2 1006.7 0.0
05/09:30am W 14 16 - - - - 10 - - 23.0 1006.7 0.0
05/09:00am W 12 16 - - - - 10 - - 22.8 1006.6 0.0
05/08:30am W 13 16 - - - - 10 - - 22.2 1006.7 0.0
05/08:00am W 8 12 - - - - 10 - - 21.6 1006.9 0.0
05/07:30am WNW 8 12 - - - - 10 - - 20.9 1006.8 0.0
05/07:00am WNW 6 10 - - - - 10 - - 20.0 1006.8 0.0
05/06:30am WNW 4 6 - - - - 10 - - 18.6 1006.7 0.0
05/06:00am W 7 9 - - - - 10 Mostly clear - 19.3 1006.7 0.0
05/05:30am WNW 4 6 - - - - 10 - - 17.8 1006.7 0.0
05/05:00am WNW 3 4 - - - - 10 - - 16.8 1006.9 0.0
05/04:30am WNW 5 8 - - - - 10 Partly cloudy - 17.9 1006.9 0.0
05/04:00am WNW 3 3 - - - - 10 Partly cloudy - 17.1 1007.2 0.0
05/03:30am W 3 5 - - - - 10 Partly cloudy - 16.9 1007.3 0.0
05/03:00am WSW 2 4 - - - - 10 Partly cloudy - 15.8 1007.6 0.0
05/02:30am SW 2 4 - - - - 10 Partly cloudy - 14.1 1008.1 0.0
05/02:00am CALM 0 0 - - - - 10 - - 13.9 1008.4 0.0
05/01:30am CALM 0 0 - - - - 10 - - 14.2 1008.7 0.0
05/01:00am CALM 0 0 - - - - 10 - - 14.0 1009.1 0.0
05/12:30am CALM 0 0 - - - - 10 - - 14.6 1009.3 0.0
05/12:00am CALM 0 0 - - - - 10 - - 14.8 1009.5 0.0
 
Date/Time
EDT
Wind Sea
Height
m
Swell Vis
km
Cloud Weather Temp
°C
Press
MSL
hPa
Rain since
9am
mm
Dir  Spd
kts
Gust
kts
Height
m
Period
s
Dir
04/11:30pm CALM 0 0 - - - - 10 - - 15.0 1009.8 0.0
04/11:00pm CALM 0 0 - - - - 10 Partly cloudy - 16.2 1010.2 0.0
04/10:30pm CALM 0 0 - - - - 10 Partly cloudy - 15.5 1010.4 0.0
04/10:00pm CALM 0 0 - - - - 10 Partly cloudy - 15.7 1010.6 0.0
04/09:30pm CALM 0 0 - - - - 10 - - 16.4 1010.7 0.0
04/09:00pm SE 3 5 - - - - 10 Mostly clear - 17.7 1010.5 0.0
04/08:30pm SE 3 4 - - - - 10 Partly cloudy - 18.2 1010.4 0.0

Other formats

Comma delimited format used in spreadsheet applications
http://www.bom.gov.au/fwo/IDN60701/IDN60701.94995.axf

JavaScript Object Notation format (JSON) in row-major order
http://www.bom.gov.au/fwo/IDN60701/IDN60701.94995.json

Data quality

Most of these data are generated automatically and are frequently updated. Quality checks on data are not normally performed. It is possible for incorrect values to appear. Refer to information at About Latest Weather Observations and please check the disclaimer before using these data.